createdAt,value
2018-04-28T00:01:01.625Z,83.94
2018-04-28T00:03:29.904Z,83.96
2018-04-28T00:05:58.239Z,83.50
2018-04-28T00:11:25.078Z,83.45
2018-04-28T00:13:53.392Z,83.78
2018-04-28T00:16:28.140Z,83.46
2018-04-28T00:19:11.304Z,83.39
2018-04-28T00:21:47.993Z,84.20
2018-04-28T00:24:16.960Z,84.13
2018-04-28T00:26:45.997Z,84.62
2018-04-28T00:29:14.264Z,83.63
2018-04-28T00:32:00.983Z,84.30
2018-04-28T00:34:46.980Z,84.83
2018-04-28T00:37:34.678Z,85.63
2018-04-28T00:40:19.511Z,85.56
2018-04-28T00:43:04.504Z,85.79
2018-04-28T00:45:40.947Z,86.59
2018-04-28T00:48:12.122Z,86.70
2018-04-28T00:50:50.398Z,86.63
2018-04-28T00:53:18.670Z,86.43
2018-04-28T00:55:54.163Z,86.79
2018-04-28T01:01:33.193Z,86.50
2018-04-28T01:07:24.991Z,85.64
2018-04-28T01:09:55.569Z,85.00
2018-04-28T01:12:24.594Z,84.50
2018-04-28T01:15:08.435Z,85.21
2018-04-28T01:17:36.682Z,85.18
2018-04-28T01:20:07.434Z,86.54
2018-04-28T01:22:36.499Z,87.20
2018-04-28T01:25:13.000Z,86.67
2018-04-28T01:27:46.752Z,85.97
2018-04-28T01:30:16.967Z,85.61
2018-04-28T01:36:36.161Z,85.79
2018-04-28T01:39:13.693Z,85.80
2018-04-28T01:41:57.106Z,86.24
2018-04-28T01:44:34.833Z,86.61
2018-04-28T01:50:08.776Z,87.05
2018-04-28T01:52:40.439Z,87.62
2018-04-28T01:55:31.056Z,87.76
2018-04-28T02:01:26.020Z,86.86
2018-04-28T02:04:02.307Z,86.64
2018-04-28T02:06:49.987Z,85.92
2018-04-28T02:09:20.575Z,86.22
2018-04-28T02:11:59.368Z,85.84
2018-04-28T02:14:34.250Z,86.34
2018-04-28T02:17:04.997Z,87.58
2018-04-28T02:22:59.755Z,90.21
2018-04-28T02:31:51.879Z,89.45
2018-04-28T02:37:47.260Z,89.95
2018-04-28T02:43:23.558Z,89.58
2018-04-28T02:45:52.551Z,88.88
2018-04-28T02:52:23.651Z,88.10
2018-04-28T02:54:54.707Z,89.18
2018-04-28T02:57:33.458Z,88.79
2018-04-28T03:00:03.462Z,88.45
2018-04-28T03:02:48.183Z,87.68
2018-04-28T03:05:19.801Z,88.70
2018-04-28T03:08:15.977Z,88.42
2018-04-28T03:10:52.383Z,87.66
2018-04-28T03:16:40.580Z,87.45
2018-04-28T03:19:14.771Z,87.86
2018-04-28T03:21:47.963Z,87.63
2018-04-28T03:24:24.499Z,87.28
2018-04-28T03:27:12.851Z,87.50
2018-04-28T03:29:58.832Z,88.35
2018-04-28T03:35:59.780Z,88.89
2018-04-28T03:38:37.518Z,88.99
2018-04-28T03:41:19.540Z,89.05
2018-04-28T03:43:48.561Z,88.99
2018-04-28T03:46:40.982Z,88.96
2018-04-28T03:49:16.878Z,89.38
2018-04-28T03:52:05.040Z,89.50
2018-04-28T03:54:38.091Z,89.07
2018-04-28T03:57:28.031Z,89.43
2018-04-28T04:00:13.963Z,88.80
2018-04-28T04:03:00.221Z,88.33
2018-04-28T04:05:40.966Z,88.76
2018-04-28T04:08:17.335Z,89.46
2018-04-28T04:14:38.194Z,88.82
2018-04-28T04:17:16.759Z,88.65
2018-04-28T04:23:53.695Z,88.50
2018-04-28T04:26:41.707Z,89.42
2018-04-28T04:29:23.426Z,89.00
2018-04-28T04:32:14.083Z,88.28
2018-04-28T04:34:55.668Z,87.83
2018-04-28T04:40:45.852Z,87.30
2018-04-28T04:46:31.855Z,86.94
2018-04-28T04:49:23.653Z,87.03
2018-04-28T04:55:04.395Z,87.53
2018-04-28T05:01:36.302Z,86.42
2018-04-28T05:07:26.794Z,86.36
2018-04-28T05:10:13.563Z,85.77
2018-04-28T05:16:09.122Z,85.21
2018-04-28T05:18:46.683Z,85.06
2018-04-28T05:21:43.238Z,85.29
2018-04-28T05:24:40.302Z,84.66
2018-04-28T05:27:19.798Z,85.05
2018-04-28T05:33:00.983Z,85.07
2018-04-28T05:42:16.689Z,87.24
2018-04-28T05:58:17.190Z,84.23
2018-04-28T06:00:54.772Z,83.32
2018-04-28T06:03:33.443Z,82.69
2018-04-28T06:06:19.174Z,81.59
2018-04-28T06:09:11.585Z,82.08
2018-04-28T06:15:25.290Z,80.41
2018-04-28T06:21:06.103Z,79.76
2018-04-28T06:23:34.382Z,79.46
2018-04-28T06:26:02.673Z,78.88
2018-04-28T06:28:31.667Z,78.17
2018-04-28T06:30:59.941Z,77.42
2018-04-28T06:33:28.200Z,77.36
2018-04-28T06:35:56.450Z,77.24
2018-04-28T06:38:24.730Z,77.30
2018-04-28T06:40:53.753Z,78.35
2018-04-28T06:43:22.018Z,78.12
2018-04-28T06:45:51.056Z,77.90
2018-04-28T06:48:19.318Z,77.97
2018-04-28T06:50:47.574Z,78.21
2018-04-28T06:53:15.855Z,80.07
2018-04-28T06:55:44.131Z,78.95
2018-04-28T06:58:12.398Z,77.65
2018-04-28T07:00:40.662Z,76.35
2018-04-28T07:03:09.711Z,76.79
2018-04-28T07:05:37.979Z,76.99
2018-04-28T07:08:06.249Z,76.97
2018-04-28T07:10:34.533Z,76.75
2018-04-28T07:13:02.824Z,77.37
2018-04-28T07:15:31.082Z,76.36
2018-04-28T07:17:59.436Z,76.19
2018-04-28T07:20:27.706Z,75.72
2018-04-28T07:22:55.967Z,75.63
2018-04-28T07:25:24.991Z,74.84
2018-04-28T07:27:53.286Z,74.99
2018-04-28T07:30:21.539Z,73.10
2018-04-28T07:32:49.824Z,73.05
2018-04-28T07:35:18.264Z,73.13
2018-04-28T07:37:46.467Z,72.40
2018-04-28T07:40:14.727Z,70.22
2018-04-28T07:42:43.835Z,69.17
2018-04-28T07:45:12.099Z,67.15
2018-04-28T07:47:41.260Z,65.92
2018-04-28T07:50:09.487Z,64.23
2018-04-28T07:52:37.754Z,64.73
2018-04-28T07:55:06.044Z,65.00
2018-04-28T07:57:34.656Z,64.65
2018-04-28T08:00:02.915Z,62.78
2018-04-28T08:02:31.195Z,63.97
2018-04-28T08:04:59.458Z,61.04
2018-04-28T08:07:27.721Z,61.62
2018-04-28T08:09:55.994Z,61.47
2018-04-28T08:12:24.266Z,62.79
2018-04-28T08:14:53.288Z,61.01
2018-04-28T08:17:21.655Z,60.26
2018-04-28T08:19:49.914Z,62.14
2018-04-28T08:22:18.936Z,61.50
2018-04-28T08:24:47.206Z,62.44
2018-04-28T08:27:15.466Z,61.53
2018-04-28T08:29:43.725Z,60.25
2018-04-28T08:32:12.854Z,59.41
2018-04-28T08:34:41.107Z,59.38
2018-04-28T08:37:10.217Z,58.95
2018-04-28T08:39:38.418Z,57.29
2018-04-28T08:42:06.774Z,55.56
2018-04-28T08:44:35.043Z,56.57
2018-04-28T08:47:03.305Z,57.76
2018-04-28T08:49:32.351Z,57.18
2018-04-28T08:52:00.610Z,57.51
2018-04-28T08:54:28.870Z,57.61
2018-04-28T08:56:57.156Z,57.10
2018-04-28T08:59:43.308Z,58.85
2018-04-28T09:02:12.351Z,57.62
2018-04-28T09:04:40.606Z,58.39
2018-04-28T09:07:40.634Z,56.40
2018-04-28T09:10:08.914Z,55.84
2018-04-28T09:12:37.180Z,56.69
2018-04-28T09:15:05.469Z,54.92
2018-04-28T09:17:33.819Z,56.05
2018-04-28T09:20:02.835Z,55.48
2018-04-28T09:22:31.159Z,56.50
2018-04-28T09:24:59.492Z,57.04
2018-04-28T09:27:27.761Z,56.41
2018-04-28T09:29:56.040Z,54.61
2018-04-28T09:32:24.309Z,52.92
2018-04-28T09:34:52.597Z,55.18
2018-04-28T09:37:20.860Z,53.73
2018-04-28T09:39:49.152Z,54.42
2018-04-28T09:42:17.442Z,52.22
2018-04-28T09:44:45.810Z,51.36
2018-04-28T09:47:14.194Z,50.78
2018-04-28T09:49:42.516Z,50.75
2018-04-28T09:52:10.787Z,51.34
2018-04-28T09:54:39.831Z,50.91
2018-04-28T09:57:08.110Z,51.50
2018-04-28T09:59:36.367Z,51.84
2018-04-28T10:02:10.184Z,50.25
2018-04-28T10:04:38.467Z,50.67
2018-04-28T10:07:06.728Z,49.70
2018-04-28T10:09:35.002Z,50.07
2018-04-28T10:12:03.296Z,52.02
2018-04-28T10:14:31.552Z,50.97
2018-04-28T10:17:00.672Z,51.50
2018-04-28T10:19:28.941Z,52.74
2018-04-28T10:21:57.199Z,52.36
2018-04-28T10:24:25.480Z,52.94
2018-04-28T10:26:53.770Z,49.49
2018-04-28T10:29:22.065Z,50.90
2018-04-28T10:31:51.447Z,49.93
2018-04-28T10:34:19.719Z,49.13
2018-04-28T10:36:48.073Z,47.33
2018-04-28T10:39:17.133Z,46.96
2018-04-28T10:41:45.380Z,46.97
2018-04-28T10:44:13.656Z,47.60
2018-04-28T10:46:41.927Z,47.66
2018-04-28T10:49:10.304Z,46.63
2018-04-28T10:51:38.567Z,48.79
2018-04-28T10:54:06.863Z,50.46
2018-04-28T10:56:35.235Z,47.71
2018-04-28T10:59:03.505Z,49.12
2018-04-28T11:01:31.786Z,47.64
2018-04-28T11:04:00.170Z,48.55
2018-04-28T11:06:28.547Z,48.41
2018-04-28T11:08:56.826Z,48.74
2018-04-28T11:11:25.110Z,49.03
2018-04-28T11:13:53.425Z,48.06
2018-04-28T11:16:21.754Z,48.15
2018-04-28T11:18:50.027Z,49.04
2018-04-28T11:21:18.287Z,50.36
2018-04-28T11:23:47.334Z,48.10
2018-04-28T11:26:15.686Z,47.08
2018-04-28T11:28:43.976Z,50.12
2018-04-28T11:31:12.271Z,48.83
2018-04-28T11:33:40.634Z,48.25
2018-04-28T11:36:08.916Z,50.25
2018-04-28T11:38:37.196Z,46.56
2018-04-28T11:41:05.446Z,47.64
2018-04-28T11:43:33.791Z,46.62
2018-04-28T11:46:02.102Z,48.24
2018-04-28T11:48:30.366Z,46.99
2018-04-28T11:50:58.635Z,46.95
2018-04-28T11:53:26.902Z,46.81
2018-04-28T11:55:55.990Z,47.17
2018-04-28T11:58:25.112Z,47.75
2018-04-28T12:00:53.383Z,48.87
2018-04-28T12:03:21.770Z,48.90
2018-04-28T12:05:50.036Z,46.18
2018-04-28T12:08:18.298Z,46.88
2018-04-28T12:10:47.430Z,45.98
2018-04-28T12:13:15.695Z,47.89
2018-04-28T12:15:43.955Z,47.86
2018-04-28T12:18:12.244Z,45.55
2018-04-28T12:20:40.527Z,45.17
2018-04-28T12:23:08.801Z,44.96
2018-04-28T12:25:37.087Z,44.43
2018-04-28T12:28:05.457Z,45.92
2018-04-28T12:30:33.740Z,47.39
2018-04-28T12:33:02.024Z,46.44
2018-04-28T12:35:30.282Z,47.56
2018-04-28T12:37:58.559Z,47.24
2018-04-28T12:40:26.819Z,47.89
2018-04-28T12:42:55.115Z,47.80
2018-04-28T12:45:23.406Z,47.11
2018-04-28T12:47:51.690Z,46.88
2018-04-28T12:50:19.968Z,45.58
2018-04-28T12:52:48.246Z,44.78
2018-04-28T12:55:16.552Z,43.85
2018-04-28T12:57:44.875Z,43.98
2018-04-28T13:00:13.134Z,43.19
2018-04-28T13:02:41.418Z,43.47
2018-04-28T13:05:09.699Z,43.98
2018-04-28T13:07:38.084Z,44.03
2018-04-28T13:10:06.460Z,44.03
2018-04-28T13:12:34.725Z,44.09
2018-04-28T13:15:03.026Z,45.26
2018-04-28T13:17:31.519Z,42.85
2018-04-28T13:19:59.768Z,43.38
2018-04-28T13:22:28.044Z,42.14
2018-04-28T13:24:56.307Z,41.28
2018-04-28T13:27:24.619Z,41.03
2018-04-28T13:29:52.900Z,43.40
2018-04-28T13:32:21.257Z,43.70
2018-04-28T13:34:49.538Z,45.52
2018-04-28T13:37:17.823Z,45.80
2018-04-28T13:39:46.083Z,44.04
2018-04-28T13:42:14.364Z,41.03
2018-04-28T13:44:42.682Z,39.58
2018-04-28T13:47:11.011Z,38.02
2018-04-28T13:49:39.387Z,35.77
2018-04-28T13:52:07.654Z,37.29
2018-04-28T13:54:35.954Z,34.57
2018-04-28T13:57:04.244Z,35.28
2018-04-28T13:59:32.534Z,37.28
2018-04-28T14:02:00.883Z,39.79
2018-04-28T14:04:29.255Z,40.95
2018-04-28T14:06:57.522Z,39.57
2018-04-28T14:09:25.913Z,40.87
2018-04-28T14:11:54.188Z,41.45
2018-04-28T14:14:22.453Z,42.04
2018-04-28T14:16:50.715Z,43.18
2018-04-28T14:19:18.993Z,42.77
2018-04-28T14:21:47.271Z,43.73
2018-04-28T14:24:15.535Z,43.84
2018-04-28T14:26:44.602Z,42.73
2018-04-28T14:29:12.863Z,42.79
2018-04-28T14:31:41.126Z,42.74
2018-04-28T14:34:09.408Z,43.34
2018-04-28T14:36:37.723Z,43.42
2018-04-28T14:39:06.761Z,43.08
2018-04-28T14:41:35.040Z,43.72
2018-04-28T14:44:03.300Z,43.66
2018-04-28T14:46:31.703Z,44.02
2018-04-28T14:48:59.987Z,43.54
2018-04-28T14:51:28.350Z,43.43
2018-04-28T14:53:56.615Z,44.95
2018-04-28T14:56:24.895Z,44.46
2018-04-28T14:58:53.154Z,44.06
2018-04-28T15:01:21.414Z,40.76
2018-04-28T15:03:50.484Z,40.46
2018-04-28T15:06:18.722Z,38.79
2018-04-28T15:08:46.992Z,37.84
2018-04-28T15:11:15.284Z,37.47
2018-04-28T15:13:43.543Z,38.31
2018-04-28T15:16:11.797Z,38.52
2018-04-28T15:18:40.877Z,39.55
2018-04-28T15:21:09.199Z,40.75
2018-04-28T15:23:37.471Z,40.68
2018-04-28T15:26:05.751Z,41.88
2018-04-28T15:28:34.013Z,41.50
2018-04-28T15:31:02.291Z,42.59
2018-04-28T15:33:30.562Z,43.29
2018-04-28T15:35:58.843Z,43.43
2018-04-28T15:38:27.102Z,44.71
2018-04-28T15:40:56.132Z,43.42
2018-04-28T15:43:24.407Z,43.99
2018-04-28T15:45:52.664Z,44.19
2018-04-28T15:48:21.059Z,44.50
2018-04-28T15:50:49.318Z,45.17
2018-04-28T15:53:17.590Z,45.76
2018-04-28T15:55:45.882Z,44.98
2018-04-28T15:58:14.147Z,45.64
2018-04-28T16:00:42.423Z,47.21
2018-04-28T16:03:10.704Z,47.08
2018-04-28T16:05:38.979Z,46.53
2018-04-28T16:08:07.245Z,46.43
2018-04-28T16:10:35.518Z,47.39
2018-04-28T16:13:04.550Z,47.13
2018-04-28T16:15:32.808Z,47.60
2018-04-28T16:18:01.094Z,47.27
2018-04-28T16:20:29.351Z,47.74
2018-04-28T16:22:57.632Z,47.41
2018-04-28T16:25:25.891Z,47.88
2018-04-28T16:27:54.919Z,48.42
2018-04-28T16:30:23.202Z,48.92
2018-04-28T16:32:51.571Z,49.85
2018-04-28T16:35:19.838Z,50.49
2018-04-28T16:37:48.222Z,50.49
2018-04-28T16:40:16.491Z,51.05
2018-04-28T16:42:44.754Z,52.08
2018-04-28T16:45:13.080Z,52.37
2018-04-28T16:47:41.334Z,52.04
2018-04-28T16:50:09.591Z,51.98
2018-04-28T16:52:37.875Z,52.14
2018-04-28T16:55:06.160Z,52.03
2018-04-28T16:57:34.444Z,51.51
2018-04-28T17:00:02.723Z,51.57
2018-04-28T17:02:31.086Z,51.28
2018-04-28T17:04:59.351Z,51.19
2018-04-28T17:07:27.635Z,51.69
2018-04-28T17:09:55.936Z,51.15
2018-04-28T17:12:24.214Z,51.75
2018-04-28T17:14:52.568Z,52.44
2018-04-28T17:17:38.384Z,52.47
2018-04-28T17:20:06.658Z,52.36
2018-04-28T17:22:34.922Z,52.63
2018-04-28T17:25:03.238Z,52.74
2018-04-28T17:27:31.451Z,52.68
2018-04-28T17:29:59.735Z,52.95
2018-04-28T17:32:28.018Z,53.35
2018-04-28T17:34:56.284Z,53.44
2018-04-28T17:37:24.561Z,53.70
2018-04-28T17:39:52.839Z,52.84
2018-04-28T17:42:21.108Z,52.31
2018-04-28T17:44:49.367Z,51.99
2018-04-28T17:47:18.490Z,52.22
2018-04-28T17:49:46.752Z,51.96
2018-04-28T17:52:15.046Z,53.03
2018-04-28T17:54:43.424Z,52.89
2018-04-28T17:57:11.687Z,53.25
2018-04-28T17:59:39.970Z,53.32
2018-04-28T18:02:08.343Z,53.25
2018-04-28T18:04:36.619Z,53.55
2018-04-28T18:07:04.902Z,53.99
2018-04-28T18:09:33.176Z,52.68
2018-04-28T18:12:01.454Z,53.35
2018-04-28T18:14:29.751Z,53.00
2018-04-28T18:16:58.003Z,53.02
2018-04-28T18:19:26.384Z,52.81
2018-04-28T18:21:54.648Z,52.59
2018-04-28T18:24:22.912Z,52.47
2018-04-28T18:26:51.955Z,52.42
2018-04-28T18:29:20.271Z,52.62
2018-04-28T18:31:49.325Z,53.01
2018-04-28T18:34:17.582Z,55.71
2018-04-28T18:36:45.886Z,52.72
2018-04-28T18:39:14.233Z,51.56
2018-04-28T18:41:42.500Z,54.65
2018-04-28T18:44:10.771Z,56.29
2018-04-28T18:46:39.076Z,57.30
2018-04-28T18:49:07.399Z,59.58
2018-04-28T18:51:36.458Z,60.02
2018-04-28T18:54:04.742Z,59.31
2018-04-28T18:56:33.095Z,61.16
2018-04-28T18:59:01.644Z,61.63
2018-04-28T19:01:30.066Z,61.40
2018-04-28T19:03:58.646Z,60.74
2018-04-28T19:06:27.164Z,60.25
2018-04-28T19:08:56.482Z,60.00
2018-04-28T19:11:25.374Z,59.55
2018-04-28T19:13:54.436Z,60.28
2018-04-28T19:16:23.520Z,59.44
2018-04-28T19:18:53.486Z,63.08
2018-04-28T19:21:22.793Z,63.63
2018-04-28T19:23:51.851Z,65.79
2018-04-28T19:26:21.076Z,65.71
2018-04-28T19:28:50.290Z,68.26
2018-04-28T19:31:19.480Z,71.11
2018-04-28T19:33:48.684Z,73.51
2018-04-28T19:36:17.841Z,75.66
2018-04-28T19:38:47.211Z,69.98
2018-04-28T19:41:16.938Z,71.05
2018-04-28T19:43:46.978Z,76.44
2018-04-28T19:46:16.532Z,74.82
2018-04-28T19:48:50.730Z,76.36
2018-04-28T19:51:20.665Z,77.27
2018-04-28T19:53:50.511Z,78.47
2018-04-28T19:56:20.445Z,79.44
2018-04-28T19:58:50.361Z,79.88
2018-04-28T20:01:20.374Z,79.54
2018-04-28T20:03:50.404Z,79.91
2018-04-28T20:06:20.181Z,79.75
2018-04-28T20:08:50.183Z,81.14
2018-04-28T20:11:19.912Z,82.00
2018-04-28T20:13:49.696Z,82.35
2018-04-28T20:16:19.623Z,82.15
2018-04-28T20:18:49.673Z,81.08
2018-04-28T20:21:18.745Z,81.19
2018-04-28T20:24:04.930Z,80.18
2018-04-28T20:26:34.621Z,80.17
2018-04-28T20:29:03.611Z,80.13
2018-04-28T20:31:33.123Z,80.67
2018-04-28T20:34:02.648Z,82.94
2018-04-28T20:36:31.622Z,83.74
2018-04-28T20:39:01.487Z,83.99
2018-04-28T20:41:31.048Z,83.88
2018-04-28T20:44:01.367Z,83.50
2018-04-28T20:46:31.075Z,83.26
2018-04-28T20:48:59.986Z,83.84
2018-04-28T20:51:28.416Z,82.03
2018-04-28T20:53:58.413Z,83.29
2018-04-28T20:56:26.755Z,84.41
2018-04-28T20:58:55.181Z,85.66
2018-04-28T21:01:23.506Z,85.30
2018-04-28T21:03:51.839Z,83.88
2018-04-28T21:06:20.908Z,85.28
2018-04-28T21:08:49.271Z,85.06
2018-04-28T21:11:17.536Z,84.94
2018-04-28T21:13:45.815Z,84.25
2018-04-28T21:16:14.190Z,85.07
2018-04-28T21:18:42.559Z,84.39
2018-04-28T21:21:10.939Z,86.03
2018-04-28T21:23:39.219Z,85.34
2018-04-28T21:26:07.482Z,83.24
2018-04-28T21:28:35.771Z,83.24
2018-04-28T21:31:04.028Z,83.50
2018-04-28T21:33:32.291Z,83.54
2018-04-28T21:36:01.335Z,84.21
2018-04-28T21:38:29.607Z,83.37
2018-04-28T21:40:57.966Z,83.66
2018-04-28T21:43:26.347Z,83.87
2018-04-28T21:45:54.606Z,83.52
2018-04-28T21:48:22.886Z,83.58
2018-04-28T21:50:51.163Z,83.51
2018-04-28T21:53:19.424Z,84.28
2018-04-28T21:55:48.459Z,84.85
2018-04-28T21:58:16.820Z,84.24
2018-04-28T22:00:45.076Z,84.22
2018-04-28T22:03:14.106Z,84.42
2018-04-28T22:05:42.469Z,84.07
2018-04-28T22:08:10.735Z,84.38
2018-04-28T22:10:39.011Z,84.96
2018-04-28T22:13:07.282Z,84.98
2018-04-28T22:15:35.551Z,85.32
2018-04-28T22:18:04.676Z,84.90
2018-04-28T22:20:33.721Z,85.10
2018-04-28T22:23:01.980Z,84.79
2018-04-28T22:25:30.293Z,84.68
2018-04-28T22:27:59.347Z,84.52
2018-04-28T22:30:27.689Z,84.10
2018-04-28T22:32:55.942Z,84.14
2018-04-28T22:35:25.002Z,83.59
2018-04-28T22:37:53.276Z,84.10
2018-04-28T22:40:21.535Z,84.01
2018-04-28T22:42:49.833Z,83.93
2018-04-28T22:45:18.095Z,84.31
2018-04-28T22:47:46.446Z,83.70
2018-04-28T22:50:14.816Z,83.44
2018-04-28T22:52:43.122Z,83.09
2018-04-28T22:55:11.384Z,83.47
2018-04-28T22:57:40.023Z,84.43
2018-04-28T23:00:09.054Z,84.81
2018-04-28T23:02:37.327Z,84.14
2018-04-28T23:05:05.606Z,84.08
2018-04-28T23:07:33.882Z,84.35
2018-04-28T23:10:02.138Z,84.22
2018-04-28T23:12:30.427Z,84.25
2018-04-28T23:14:58.711Z,85.26
2018-04-28T23:17:26.978Z,85.42
2018-04-28T23:19:55.264Z,85.36
2018-04-28T23:22:23.537Z,84.94
2018-04-28T23:24:51.803Z,85.92
2018-04-28T23:27:20.079Z,87.25
2018-04-28T23:29:48.359Z,87.03
2018-04-28T23:32:16.643Z,86.30
2018-04-28T23:34:45.023Z,86.09
2018-04-28T23:37:13.288Z,85.81
2018-04-28T23:39:41.581Z,85.49
2018-04-28T23:42:09.855Z,85.73
2018-04-28T23:44:38.127Z,85.67
2018-04-28T23:47:06.408Z,85.90
2018-04-28T23:49:34.685Z,85.98
2018-04-28T23:52:02.956Z,86.17
2018-04-28T23:54:31.239Z,86.24
2018-04-28T23:56:59.514Z,86.45
2018-04-28T23:59:27.790Z,86.51
